createdAt,value
2019-05-19T00:01:53.875Z,5.85
2019-05-19T00:04:24.003Z,5.92
2019-05-19T00:06:55.526Z,4.67
2019-05-19T00:09:25.786Z,6.15
2019-05-19T00:11:56.852Z,6.80
2019-05-19T00:14:27.130Z,6.65
2019-05-19T00:16:58.338Z,5.45
2019-05-19T00:19:28.570Z,6.12
2019-05-19T00:21:58.734Z,7.12
2019-05-19T00:24:28.894Z,7.17
2019-05-19T00:27:00.162Z,6.17
2019-05-19T00:29:30.315Z,5.85
2019-05-19T00:32:00.466Z,6.95
2019-05-19T00:34:30.767Z,6.33
2019-05-19T00:37:00.983Z,7.00
2019-05-19T00:39:31.321Z,6.35
2019-05-19T00:42:01.432Z,6.85
2019-05-19T00:44:31.578Z,5.85
2019-05-19T00:47:01.707Z,6.03
2019-05-19T00:49:41.046Z,7.15
2019-05-19T00:52:03.917Z,5.05
2019-05-19T00:54:34.071Z,6.03
2019-05-19T00:57:04.820Z,6.12
2019-05-19T00:59:35.718Z,6.45
2019-05-19T01:02:05.896Z,6.08
2019-05-19T01:04:36.049Z,5.22
2019-05-19T01:07:06.280Z,6.35
2019-05-19T01:09:36.521Z,6.45
2019-05-19T01:12:06.680Z,6.22
2019-05-19T01:14:36.826Z,6.75
2019-05-19T01:17:06.941Z,5.62
2019-05-19T01:19:37.216Z,5.80
2019-05-19T01:22:08.329Z,6.53
2019-05-19T01:24:38.491Z,6.40
2019-05-19T01:27:08.597Z,5.90
2019-05-19T01:29:38.769Z,6.95
2019-05-19T01:32:08.953Z,6.58
2019-05-19T01:34:39.113Z,5.97
2019-05-19T01:37:09.327Z,5.30
2019-05-19T01:39:39.564Z,5.53
2019-05-19T01:42:09.739Z,6.85
2019-05-19T01:44:39.869Z,5.90
2019-05-19T01:47:09.991Z,6.40
2019-05-19T01:49:40.130Z,6.45
2019-05-19T01:52:10.356Z,5.70
2019-05-19T01:54:40.457Z,5.92
2019-05-19T01:57:10.607Z,6.95
2019-05-19T01:59:40.765Z,5.97
2019-05-19T02:02:10.915Z,6.05
2019-05-19T02:04:41.067Z,6.33
2019-05-19T02:07:12.303Z,6.20
2019-05-19T02:09:42.517Z,4.83
2019-05-19T02:12:12.871Z,5.35
2019-05-19T02:14:42.996Z,5.30
2019-05-19T02:17:14.215Z,6.75
2019-05-19T02:19:44.338Z,6.22
2019-05-19T02:22:14.487Z,5.80
2019-05-19T02:24:44.604Z,6.03
2019-05-19T02:27:14.827Z,6.00
2019-05-19T02:29:45.197Z,5.05
2019-05-19T02:32:15.350Z,5.42
2019-05-19T02:34:45.468Z,5.87
2019-05-19T02:37:15.612Z,4.72
2019-05-19T02:39:45.710Z,5.55
2019-05-19T02:42:19.101Z,5.40
2019-05-19T02:44:50.658Z,5.40
2019-05-19T02:47:22.324Z,5.97
2019-05-19T02:49:54.914Z,5.72
2019-05-19T02:52:26.972Z,5.65
2019-05-19T02:54:58.944Z,5.40
2019-05-19T02:57:29.680Z,5.53
2019-05-19T03:00:01.194Z,6.47
2019-05-19T03:02:31.681Z,6.22
2019-05-19T03:05:02.001Z,5.92
2019-05-19T03:07:34.217Z,7.03
2019-05-19T03:10:04.039Z,6.83
2019-05-19T03:12:34.223Z,6.28
2019-05-19T03:15:04.598Z,8.58
2019-05-19T03:17:34.759Z,8.35
2019-05-19T03:20:05.007Z,7.70
2019-05-19T03:22:35.188Z,8.78
2019-05-19T03:25:05.823Z,8.18
2019-05-19T03:27:36.050Z,7.87
2019-05-19T03:30:24.233Z,8.80
2019-05-19T03:32:58.794Z,8.95
2019-05-19T03:35:28.936Z,8.10
2019-05-19T03:37:59.112Z,8.73
2019-05-19T03:40:29.380Z,7.75
2019-05-19T03:42:59.527Z,8.40
2019-05-19T03:45:29.723Z,8.80
2019-05-19T03:47:59.851Z,9.43
2019-05-19T03:50:30.610Z,8.98
2019-05-19T03:53:01.127Z,8.28
2019-05-19T03:55:31.227Z,10.50
2019-05-19T03:58:01.373Z,8.38
2019-05-19T04:00:31.510Z,8.65
2019-05-19T04:03:01.714Z,8.00
2019-05-19T04:05:31.826Z,8.15
2019-05-19T04:08:05.633Z,8.70
2019-05-19T04:10:34.401Z,9.05
2019-05-19T04:13:04.659Z,10.10
2019-05-19T04:15:34.968Z,10.45
2019-05-19T04:18:05.181Z,10.50
2019-05-19T04:20:35.472Z,11.08
2019-05-19T04:23:05.789Z,11.45
2019-05-19T04:25:35.995Z,11.08
2019-05-19T04:28:06.188Z,13.22
2019-05-19T04:30:36.384Z,10.98
2019-05-19T04:33:06.736Z,11.43
2019-05-19T04:35:36.983Z,11.90
2019-05-19T04:38:07.256Z,11.57
2019-05-19T04:40:37.560Z,13.50
2019-05-19T04:43:07.758Z,11.83
2019-05-19T04:45:38.021Z,11.40
2019-05-19T04:48:09.569Z,13.28
2019-05-19T04:50:40.156Z,12.98
2019-05-19T04:53:10.396Z,9.68
2019-05-19T04:55:40.581Z,11.88
2019-05-19T04:58:10.733Z,10.53
2019-05-19T05:00:40.913Z,10.70
2019-05-19T05:03:11.187Z,12.03
2019-05-19T05:05:41.381Z,11.35
2019-05-19T05:08:27.936Z,12.23
2019-05-19T05:10:43.315Z,10.55
2019-05-19T05:13:13.475Z,10.90
2019-05-19T05:15:48.060Z,10.75
2019-05-19T05:18:21.054Z,8.85
2019-05-19T05:20:51.225Z,10.78
2019-05-19T05:23:21.431Z,11.65
2019-05-19T05:25:51.690Z,10.45
2019-05-19T05:28:23.959Z,9.80
2019-05-19T05:30:55.906Z,10.03
2019-05-19T05:33:27.016Z,10.60
2019-05-19T05:35:57.250Z,10.72
2019-05-19T05:38:27.485Z,10.43
2019-05-19T05:40:57.661Z,12.68
2019-05-19T05:43:27.840Z,10.48
2019-05-19T05:46:00.378Z,9.68
2019-05-19T05:48:32.854Z,9.95
2019-05-19T05:51:04.613Z,9.28
2019-05-19T05:53:35.631Z,10.45
2019-05-19T05:56:05.839Z,8.35
2019-05-19T05:58:36.120Z,9.80
2019-05-19T06:01:06.307Z,9.53
2019-05-19T06:03:36.528Z,8.63
2019-05-19T06:06:06.935Z,8.60
2019-05-19T06:08:37.331Z,8.23
2019-05-19T06:11:09.924Z,8.23
2019-05-19T06:13:40.241Z,6.92
2019-05-19T06:16:12.195Z,5.72
2019-05-19T06:18:42.514Z,7.60
2019-05-19T06:21:14.291Z,6.47
2019-05-19T06:23:44.514Z,6.40
2019-05-19T06:26:14.841Z,6.85
2019-05-19T06:28:45.078Z,6.33
2019-05-19T06:31:15.443Z,6.35
2019-05-19T06:33:48.411Z,5.33
2019-05-19T06:36:18.595Z,5.30
2019-05-19T06:38:49.306Z,4.55
2019-05-19T06:41:21.078Z,4.28
2019-05-19T06:43:51.480Z,4.50
2019-05-19T06:46:21.758Z,5.12
2019-05-19T06:48:52.505Z,3.10
2019-05-19T06:51:22.681Z,3.70
2019-05-19T06:53:53.038Z,3.17
2019-05-19T06:56:23.289Z,3.60
2019-05-19T06:59:00.844Z,4.03
2019-05-19T07:01:31.102Z,3.22
2019-05-19T07:04:01.482Z,2.92
2019-05-19T07:06:34.182Z,2.70
2019-05-19T07:09:07.272Z,2.45
2019-05-19T07:11:40.368Z,3.17
2019-05-19T07:14:10.543Z,2.75
2019-05-19T07:16:41.928Z,3.15
2019-05-19T07:19:12.162Z,2.02
2019-05-19T07:21:42.336Z,2.98
2019-05-19T07:24:12.975Z,3.58
2019-05-19T07:26:44.313Z,3.60
2019-05-19T07:29:14.630Z,3.37
2019-05-19T07:31:46.139Z,3.02
2019-05-19T07:34:16.357Z,1.92
2019-05-19T07:36:46.598Z,3.12
2019-05-19T07:39:16.738Z,2.17
2019-05-19T07:41:49.879Z,1.80
2019-05-19T07:44:20.068Z,1.75
2019-05-19T07:46:51.887Z,1.37
2019-05-19T07:49:22.083Z,1.10
2019-05-19T07:51:55.276Z,0.82
2019-05-19T07:54:26.806Z,0.72
2019-05-19T07:56:56.979Z,0.72
2019-05-19T07:59:27.152Z,1.67
2019-05-19T08:01:57.284Z,0.40
2019-05-19T08:04:27.817Z,0.62
2019-05-19T08:07:00.351Z,0.40
2019-05-19T08:09:32.335Z,0.50
2019-05-19T08:12:03.145Z,0.50
2019-05-19T08:14:33.459Z,0.50
2019-05-19T08:17:03.919Z,0.72
2019-05-19T08:19:35.910Z,0.53
2019-05-19T08:22:06.251Z,0.60
2019-05-19T08:24:37.520Z,1.47
2019-05-19T08:27:07.687Z,0.70
2019-05-19T08:29:38.011Z,1.72
2019-05-19T08:32:08.266Z,1.32
2019-05-19T08:34:39.641Z,1.52
2019-05-19T08:37:10.026Z,1.60
2019-05-19T08:39:47.843Z,2.30
2019-05-19T08:42:18.059Z,2.67
2019-05-19T08:44:48.177Z,2.30
2019-05-19T08:47:20.999Z,1.60
2019-05-19T08:49:52.699Z,1.52
2019-05-19T08:52:22.951Z,1.50
2019-05-19T08:54:53.183Z,1.90
2019-05-19T08:57:25.689Z,2.02
2019-05-19T08:59:55.922Z,2.52
2019-05-19T09:02:26.215Z,2.77
2019-05-19T09:04:56.373Z,1.77
2019-05-19T09:07:26.654Z,1.50
2019-05-19T09:09:56.845Z,3.10
2019-05-19T09:12:27.008Z,2.50
2019-05-19T09:14:57.214Z,3.22
2019-05-19T09:17:27.431Z,2.77
2019-05-19T09:19:57.567Z,3.60
2019-05-19T09:22:29.429Z,2.52
2019-05-19T09:25:01.191Z,2.98
2019-05-19T09:27:31.413Z,2.87
2019-05-19T09:30:01.739Z,3.35
2019-05-19T09:32:32.301Z,3.75
2019-05-19T09:35:07.365Z,3.80
2019-05-19T09:37:40.919Z,2.98
2019-05-19T09:40:12.185Z,2.83
2019-05-19T09:42:42.362Z,4.08
2019-05-19T09:45:12.867Z,2.77
2019-05-19T09:47:43.415Z,2.87
2019-05-19T09:50:17.340Z,2.12
2019-05-19T09:52:50.071Z,2.37
2019-05-19T09:55:19.932Z,1.50
2019-05-19T09:57:53.231Z,2.42
2019-05-19T10:00:23.362Z,2.58
2019-05-19T10:02:53.835Z,2.15
2019-05-19T10:05:25.335Z,1.27
2019-05-19T10:07:55.530Z,1.40
2019-05-19T10:10:48.798Z,1.67
2019-05-19T10:13:19.037Z,1.32
2019-05-19T10:15:50.227Z,2.12
2019-05-19T10:18:27.877Z,1.70
2019-05-19T10:20:59.961Z,1.05
2019-05-19T10:23:30.386Z,1.65
2019-05-19T10:26:00.608Z,1.27
2019-05-19T10:28:30.814Z,1.60
2019-05-19T10:31:02.826Z,1.20
2019-05-19T10:33:35.677Z,1.57
2019-05-19T10:36:05.924Z,1.47
2019-05-19T10:38:36.230Z,0.88
2019-05-19T10:41:06.387Z,1.25
2019-05-19T10:43:36.773Z,1.00
2019-05-19T10:46:06.904Z,1.42
2019-05-19T10:48:37.922Z,1.00
2019-05-19T10:51:12.830Z,1.50
2019-05-19T10:53:45.093Z,1.85
2019-05-19T10:56:18.965Z,1.32
2019-05-19T10:58:48.391Z,1.27
2019-05-19T11:01:21.310Z,0.95
2019-05-19T11:03:59.691Z,1.27
2019-05-19T11:06:30.488Z,1.37
2019-05-19T11:09:00.890Z,1.60
2019-05-19T11:11:32.936Z,1.12
2019-05-19T11:14:03.365Z,1.87
2019-05-19T11:16:37.605Z,1.22
2019-05-19T11:19:07.842Z,1.47
2019-05-19T11:21:38.057Z,1.40
2019-05-19T11:24:08.184Z,1.32
2019-05-19T11:26:38.396Z,1.67
2019-05-19T11:29:09.001Z,1.60
2019-05-19T11:31:39.500Z,1.85
2019-05-19T11:34:11.296Z,1.07
2019-05-19T11:36:48.513Z,0.80
2019-05-19T11:39:18.769Z,1.50
2019-05-19T11:41:49.016Z,1.02
2019-05-19T11:44:19.458Z,1.20
2019-05-19T11:46:49.642Z,1.20
2019-05-19T11:49:29.123Z,0.80
2019-05-19T11:52:03.199Z,1.00
2019-05-19T11:54:33.354Z,0.57
2019-05-19T11:57:03.662Z,0.33
2019-05-19T11:59:33.930Z,0.50
2019-05-19T12:02:06.117Z,0.42
2019-05-19T12:04:40.829Z,0.37
2019-05-19T12:07:11.986Z,0.30
2019-05-19T12:09:42.202Z,0.60
2019-05-19T12:12:12.448Z,0.50
2019-05-19T12:14:44.283Z,0.40
2019-05-19T12:17:17.277Z,0.60
2019-05-19T12:19:48.694Z,0.20
2019-05-19T12:22:19.682Z,0.40
2019-05-19T12:24:50.004Z,0.40
2019-05-19T12:27:20.269Z,0.50
2019-05-19T12:29:50.660Z,0.30
2019-05-19T12:32:23.389Z,0.40
2019-05-19T12:34:58.519Z,0.35
2019-05-19T12:37:31.665Z,0.40
2019-05-19T12:40:03.621Z,0.50
2019-05-19T12:42:35.375Z,0.30
2019-05-19T12:45:08.355Z,0.50
2019-05-19T12:47:48.233Z,0.37
2019-05-19T12:50:27.293Z,0.35
2019-05-19T12:53:10.530Z,0.30
2019-05-19T12:55:44.050Z,0.30
2019-05-19T12:58:14.438Z,0.42
2019-05-19T13:00:44.839Z,0.55
2019-05-19T13:03:16.576Z,0.47
2019-05-19T13:05:51.694Z,0.55
2019-05-19T13:08:26.350Z,0.57
2019-05-19T13:11:06.431Z,0.40
2019-05-19T13:13:37.883Z,0.53
2019-05-19T13:16:08.243Z,0.50
2019-05-19T13:18:39.811Z,0.60
2019-05-19T13:21:11.618Z,0.57
2019-05-19T13:23:48.752Z,0.50
2019-05-19T13:26:19.041Z,1.02
2019-05-19T13:28:49.601Z,1.07
2019-05-19T13:31:19.935Z,0.50
2019-05-19T13:33:50.078Z,1.40
2019-05-19T13:36:22.809Z,1.17
2019-05-19T13:38:56.587Z,0.60
2019-05-19T13:41:26.708Z,1.05
2019-05-19T13:43:59.539Z,0.62
2019-05-19T13:46:28.697Z,1.00
2019-05-19T13:48:58.846Z,1.02
2019-05-19T13:51:28.999Z,1.02
2019-05-19T13:54:00.026Z,1.37
2019-05-19T13:56:33.543Z,1.00
2019-05-19T13:59:03.985Z,0.68
2019-05-19T14:01:34.256Z,1.17
2019-05-19T14:04:05.941Z,1.00
2019-05-19T14:06:39.042Z,1.52
2019-05-19T14:09:09.540Z,1.15
2019-05-19T14:11:40.223Z,0.95
2019-05-19T14:14:10.404Z,1.00
2019-05-19T14:16:40.622Z,1.47
2019-05-19T14:19:12.259Z,0.60
2019-05-19T14:21:44.541Z,0.75
2019-05-19T14:24:17.614Z,0.82
2019-05-19T14:26:50.838Z,0.70
2019-05-19T14:29:21.215Z,0.95
2019-05-19T14:31:51.418Z,0.90
2019-05-19T14:34:21.752Z,1.22
2019-05-19T14:36:54.007Z,1.07
2019-05-19T14:39:24.781Z,1.20
2019-05-19T14:41:59.140Z,0.85
2019-05-19T14:44:33.596Z,0.60
2019-05-19T14:47:03.747Z,0.50
2019-05-19T14:49:33.993Z,0.68
2019-05-19T14:52:04.680Z,0.50
2019-05-19T14:54:36.385Z,0.55
2019-05-19T14:57:06.583Z,0.57
2019-05-19T14:59:36.935Z,0.65
2019-05-19T15:02:07.094Z,0.30
2019-05-19T15:04:37.169Z,0.50
2019-05-19T15:07:07.949Z,0.28
2019-05-19T15:09:38.057Z,0.55
2019-05-19T15:12:08.185Z,0.42
2019-05-19T15:14:38.309Z,0.60
2019-05-19T15:17:08.411Z,0.47
2019-05-19T15:19:38.668Z,0.20
2019-05-19T15:22:08.809Z,0.50
2019-05-19T15:24:38.967Z,0.68
2019-05-19T15:27:10.068Z,0.50
2019-05-19T15:29:40.214Z,0.47
2019-05-19T15:32:13.767Z,0.33
2019-05-19T15:34:51.283Z,0.47
2019-05-19T15:37:21.183Z,0.62
2019-05-19T15:39:51.448Z,1.27
2019-05-19T15:42:25.183Z,0.88
2019-05-19T15:45:07.238Z,1.50
2019-05-19T15:47:37.813Z,0.78
2019-05-19T15:50:08.374Z,0.72
2019-05-19T15:52:42.470Z,0.68
2019-05-19T15:55:15.830Z,0.62
2019-05-19T15:57:48.633Z,1.30
2019-05-19T16:00:20.316Z,1.00
2019-05-19T16:02:50.490Z,0.65
2019-05-19T16:05:20.577Z,1.55
2019-05-19T16:07:50.790Z,1.10
2019-05-19T16:10:20.999Z,1.00
2019-05-19T16:12:51.235Z,0.78
2019-05-19T16:15:22.123Z,1.80
2019-05-19T16:17:56.656Z,1.25
2019-05-19T16:20:26.773Z,1.25
2019-05-19T16:22:58.149Z,1.25
2019-05-19T16:25:29.755Z,1.17
2019-05-19T16:28:00.871Z,1.45
2019-05-19T16:30:31.281Z,0.98
2019-05-19T16:33:01.413Z,1.67
2019-05-19T16:35:31.739Z,1.30
2019-05-19T16:38:03.548Z,1.37
2019-05-19T16:40:33.833Z,1.42
2019-05-19T16:43:05.239Z,1.45
2019-05-19T16:45:35.387Z,1.57
2019-05-19T16:48:05.769Z,1.57
2019-05-19T16:50:37.434Z,0.88
2019-05-19T16:53:10.414Z,1.35
2019-05-19T16:55:41.706Z,1.37
2019-05-19T16:58:21.102Z,0.60
2019-05-19T17:00:44.321Z,1.10
2019-05-19T17:03:15.885Z,1.27
2019-05-19T17:05:45.990Z,1.52
2019-05-19T17:08:18.144Z,1.22
2019-05-19T17:10:55.664Z,1.25
2019-05-19T17:13:28.863Z,1.60
2019-05-19T17:16:02.002Z,1.30
2019-05-19T17:18:39.718Z,1.95
2019-05-19T17:21:10.322Z,2.52
2019-05-19T17:23:40.678Z,2.35
2019-05-19T17:26:17.399Z,2.60
2019-05-19T17:28:57.627Z,1.62
2019-05-19T17:31:16.850Z,1.87
2019-05-19T17:33:58.928Z,2.15
2019-05-19T17:36:29.392Z,2.37
2019-05-19T17:39:34.808Z,1.37
2019-05-19T17:42:20.932Z,2.17
2019-05-19T17:44:51.602Z,1.65
2019-05-19T17:47:22.041Z,2.02
2019-05-19T17:49:52.562Z,2.72
2019-05-19T17:52:22.783Z,2.37
2019-05-19T17:54:53.134Z,1.90
2019-05-19T17:57:42.185Z,1.55
2019-05-19T18:00:37.652Z,1.80
2019-05-19T18:03:12.562Z,1.90
2019-05-19T18:05:45.205Z,2.10
2019-05-19T18:08:23.210Z,2.58
2019-05-19T18:11:10.606Z,2.37
2019-05-19T18:17:58.575Z,2.35
2019-05-19T18:20:29.994Z,2.47
2019-05-19T18:26:44.847Z,4.35
2019-05-19T18:29:30.480Z,2.47
2019-05-19T18:31:50.005Z,2.92
2019-05-19T18:34:20.558Z,2.95
2019-05-19T18:36:50.905Z,2.62
2019-05-19T18:39:21.062Z,2.80
2019-05-19T18:41:51.557Z,2.17
2019-05-19T18:44:21.789Z,2.20
2019-05-19T18:46:57.758Z,3.95
2019-05-19T18:49:29.620Z,3.17
2019-05-19T18:52:03.313Z,2.65
2019-05-19T18:54:37.141Z,3.33
2019-05-19T18:57:08.686Z,3.98
2019-05-19T18:59:46.901Z,4.25
2019-05-19T19:02:25.186Z,3.40
2019-05-19T19:05:02.381Z,3.12
2019-05-19T19:08:20.694Z,3.55
2019-05-19T19:10:30.232Z,3.80
2019-05-19T19:13:00.677Z,4.03
2019-05-19T19:15:30.846Z,3.50
2019-05-19T19:18:01.163Z,4.22
2019-05-19T19:20:31.942Z,2.22
2019-05-19T19:23:02.899Z,3.90
2019-05-19T19:25:34.453Z,3.17
2019-05-19T19:28:04.745Z,3.95
2019-05-19T19:30:35.088Z,3.75
2019-05-19T19:33:12.871Z,3.80
2019-05-19T19:35:44.841Z,4.35
2019-05-19T19:38:15.077Z,5.05
2019-05-19T19:40:46.573Z,3.40
2019-05-19T19:43:16.975Z,3.80
2019-05-19T19:45:47.429Z,4.15
2019-05-19T19:48:17.811Z,4.87
2019-05-19T19:50:55.980Z,5.45
2019-05-19T19:53:26.386Z,4.67
2019-05-19T19:55:57.106Z,4.55
2019-05-19T19:58:27.629Z,5.62
2019-05-19T20:00:57.958Z,6.00
2019-05-19T20:03:31.647Z,5.33
2019-05-19T20:06:02.305Z,5.20
2019-05-19T20:08:35.443Z,5.72
2019-05-19T20:11:05.750Z,6.85
2019-05-19T20:13:35.942Z,4.95
2019-05-19T20:16:06.335Z,5.15
2019-05-19T20:18:36.566Z,5.45
2019-05-19T20:21:07.141Z,4.83
2019-05-19T20:23:37.602Z,4.83
2019-05-19T20:26:12.174Z,5.30
2019-05-19T20:28:47.393Z,4.28
2019-05-19T20:31:22.757Z,5.12
2019-05-19T20:33:53.050Z,5.10
2019-05-19T20:36:23.365Z,5.87
2019-05-19T20:38:53.577Z,6.42
2019-05-19T20:41:23.825Z,3.90
2019-05-19T20:43:54.090Z,5.03
2019-05-19T20:46:24.340Z,4.72
2019-05-19T20:48:54.950Z,3.77
2019-05-19T20:51:25.182Z,5.33
2019-05-19T20:53:55.472Z,5.00
2019-05-19T20:56:26.179Z,3.95
2019-05-19T20:58:56.380Z,4.70
2019-05-19T21:01:29.324Z,4.28
2019-05-19T21:04:00.610Z,3.85
2019-05-19T21:06:30.751Z,4.50
2019-05-19T21:09:00.894Z,3.77
2019-05-19T21:11:32.786Z,4.10
2019-05-19T21:14:02.998Z,3.00
2019-05-19T21:16:33.289Z,3.85
2019-05-19T21:19:05.840Z,3.12
2019-05-19T21:21:36.011Z,3.90
2019-05-19T21:24:06.230Z,3.22
2019-05-19T21:26:36.433Z,3.37
2019-05-19T21:29:07.478Z,4.45
2019-05-19T21:31:38.591Z,4.53
2019-05-19T21:34:08.859Z,4.17
2019-05-19T21:36:39.114Z,3.55
2019-05-19T21:39:09.500Z,4.20
2019-05-19T21:41:39.967Z,3.33
2019-05-19T21:44:10.335Z,4.40
2019-05-19T21:46:40.515Z,3.70
2019-05-19T21:49:10.726Z,2.90
2019-05-19T21:51:40.997Z,3.17
2019-05-19T21:54:12.316Z,2.60
2019-05-19T21:56:42.603Z,2.87
2019-05-19T21:59:12.811Z,3.05
2019-05-19T22:01:44.877Z,3.37
2019-05-19T22:04:15.168Z,1.92
2019-05-19T22:06:52.200Z,2.65
2019-05-19T22:12:04.775Z,3.05
2019-05-19T22:14:34.931Z,2.77
2019-05-19T22:17:10.879Z,2.67
2019-05-19T22:19:41.091Z,2.55
2019-05-19T22:22:11.209Z,2.67
2019-05-19T22:24:41.361Z,2.65
2019-05-19T22:27:11.519Z,2.05
2019-05-19T22:29:41.781Z,1.30
2019-05-19T22:32:12.005Z,1.87
2019-05-19T22:34:42.286Z,1.27
2019-05-19T22:37:12.411Z,1.90
2019-05-19T22:39:43.595Z,1.85
2019-05-19T22:42:13.755Z,2.30
2019-05-19T22:44:43.960Z,1.90
2019-05-19T22:47:14.099Z,0.93
2019-05-19T22:49:45.243Z,1.12
2019-05-19T22:52:15.467Z,1.55
2019-05-19T22:54:45.651Z,1.20
2019-05-19T22:57:17.980Z,1.62
2019-05-19T22:59:47.753Z,1.37
2019-05-19T23:02:17.873Z,1.22
2019-05-19T23:04:48.032Z,0.88
2019-05-19T23:07:18.233Z,1.60
2019-05-19T23:09:48.537Z,1.05
2019-05-19T23:12:21.509Z,1.12
2019-05-19T23:14:51.711Z,1.20
2019-05-19T23:17:21.905Z,0.75
2019-05-19T23:19:52.073Z,1.62
2019-05-19T23:22:22.235Z,1.15
2019-05-19T23:24:52.624Z,2.45
2019-05-19T23:27:22.792Z,1.85
2019-05-19T23:29:52.945Z,1.72
2019-05-19T23:32:26.013Z,1.50
2019-05-19T23:34:56.117Z,1.72
2019-05-19T23:37:27.733Z,2.10
2019-05-19T23:39:57.875Z,2.15
2019-05-19T23:42:27.999Z,1.55
2019-05-19T23:44:58.261Z,2.27
2019-05-19T23:47:28.413Z,1.82
2019-05-19T23:49:58.736Z,1.55
2019-05-19T23:52:28.867Z,1.72
2019-05-19T23:54:59.060Z,1.95
2019-05-19T23:57:29.234Z,2.90
2019-05-19T23:59:59.410Z,2.77
